sensor_id;sensor_type;location;lat;lon;timestamp;P1;durP1;ratioP1;P2;durP2;ratioP2
64520;SDS011;50896;46.714;17.322;2023-12-28T00:02:11;14.13;;;7.97;;
64520;SDS011;50896;46.714;17.322;2023-12-28T00:04:40;14.45;;;8.02;;
64520;SDS011;50896;46.714;17.322;2023-12-28T00:07:07;12.57;;;7.57;;
64520;SDS011;50896;46.714;17.322;2023-12-28T00:09:33;15.15;;;8.23;;
64520;SDS011;50896;46.714;17.322;2023-12-28T00:12:00;15.52;;;8.55;;
64520;SDS011;50896;46.714;17.322;2023-12-28T00:14:27;15.50;;;8.50;;
64520;SDS011;50896;46.714;17.322;2023-12-28T00:16:54;13.68;;;8.38;;
64520;SDS011;50896;46.714;17.322;2023-12-28T00:19:21;13.95;;;8.73;;
64520;SDS011;50896;46.714;17.322;2023-12-28T00:21:48;15.70;;;8.93;;
64520;SDS011;50896;46.714;17.322;2023-12-28T00:24:16;21.48;;;9.20;;
64520;SDS011;50896;46.714;17.322;2023-12-28T00:26:43;16.98;;;9.23;;
64520;SDS011;50896;46.714;17.322;2023-12-28T00:29:10;16.35;;;9.63;;
64520;SDS011;50896;46.714;17.322;2023-12-28T00:31:37;16.85;;;9.30;;
64520;SDS011;50896;46.714;17.322;2023-12-28T00:34:05;18.00;;;8.98;;
64520;SDS011;50896;46.714;17.322;2023-12-28T00:36:32;15.20;;;8.95;;
64520;SDS011;50896;46.714;17.322;2023-12-28T00:39:00;15.27;;;8.90;;
64520;SDS011;50896;46.714;17.322;2023-12-28T00:41:27;16.27;;;8.68;;
64520;SDS011;50896;46.714;17.322;2023-12-28T00:43:54;15.27;;;8.55;;
64520;SDS011;50896;46.714;17.322;2023-12-28T00:46:21;15.05;;;8.80;;
64520;SDS011;50896;46.714;17.322;2023-12-28T00:48:47;15.90;;;8.02;;
64520;SDS011;50896;46.714;17.322;2023-12-28T00:51:15;15.27;;;8.65;;
64520;SDS011;50896;46.714;17.322;2023-12-28T00:53:42;16.10;;;8.30;;
64520;SDS011;50896;46.714;17.322;2023-12-28T00:56:11;18.30;;;9.05;;
64520;SDS011;50896;46.714;17.322;2023-12-28T00:58:39;13.30;;;8.63;;
64520;SDS011;50896;46.714;17.322;2023-12-28T01:01:07;17.40;;;8.45;;
64520;SDS011;50896;46.714;17.322;2023-12-28T01:03:35;16.42;;;9.48;;
64520;SDS011;50896;46.714;17.322;2023-12-28T01:06:03;17.45;;;10.10;;
64520;SDS011;50896;46.714;17.322;2023-12-28T01:08:31;21.08;;;9.88;;
64520;SDS011;50896;46.714;17.322;2023-12-28T01:11:00;22.65;;;10.13;;
64520;SDS011;50896;46.714;17.322;2023-12-28T01:13:28;15.60;;;10.73;;
64520;SDS011;50896;46.714;17.322;2023-12-28T01:15:55;17.27;;;10.70;;
64520;SDS011;50896;46.714;17.322;2023-12-28T01:18:22;21.35;;;10.15;;
64520;SDS011;50896;46.714;17.322;2023-12-28T01:20:50;19.55;;;10.98;;
64520;SDS011;50896;46.714;17.322;2023-12-28T01:23:17;18.38;;;11.00;;
64520;SDS011;50896;46.714;17.322;2023-12-28T01:25:44;17.27;;;10.73;;
64520;SDS011;50896;46.714;17.322;2023-12-28T01:28:11;17.52;;;10.82;;
64520;SDS011;50896;46.714;17.322;2023-12-28T01:30:38;21.83;;;11.30;;
64520;SDS011;50896;46.714;17.322;2023-12-28T01:33:05;16.77;;;10.93;;
64520;SDS011;50896;46.714;17.322;2023-12-28T01:35:31;19.23;;;11.13;;
64520;SDS011;50896;46.714;17.322;2023-12-28T01:37:58;22.70;;;12.32;;
64520;SDS011;50896;46.714;17.322;2023-12-28T01:40:27;21.60;;;11.55;;
64520;SDS011;50896;46.714;17.322;2023-12-28T01:42:54;22.35;;;12.63;;
64520;SDS011;50896;46.714;17.322;2023-12-28T01:45:21;20.13;;;11.68;;
64520;SDS011;50896;46.714;17.322;2023-12-28T01:47:48;19.90;;;11.93;;
64520;SDS011;50896;46.714;17.322;2023-12-28T01:50:15;22.60;;;11.48;;
64520;SDS011;50896;46.714;17.322;2023-12-28T01:52:43;24.48;;;12.55;;
64520;SDS011;50896;46.714;17.322;2023-12-28T01:55:10;22.73;;;12.05;;
64520;SDS011;50896;46.714;17.322;2023-12-28T01:57:38;17.58;;;10.77;;
64520;SDS011;50896;46.714;17.322;2023-12-28T02:00:06;18.98;;;11.40;;
64520;SDS011;50896;46.714;17.322;2023-12-28T02:02:40;20.88;;;11.93;;
64520;SDS011;50896;46.714;17.322;2023-12-28T02:05:09;20.60;;;11.48;;
64520;SDS011;50896;46.714;17.322;2023-12-28T02:07:38;23.67;;;13.15;;
64520;SDS011;50896;46.714;17.322;2023-12-28T02:10:05;20.45;;;11.88;;
64520;SDS011;50896;46.714;17.322;2023-12-28T02:12:33;23.00;;;12.43;;
64520;SDS011;50896;46.714;17.322;2023-12-28T02:15:00;19.70;;;12.07;;
64520;SDS011;50896;46.714;17.322;2023-12-28T02:17:28;22.08;;;11.82;;
64520;SDS011;50896;46.714;17.322;2023-12-28T02:20:00;19.25;;;12.00;;
64520;SDS011;50896;46.714;17.322;2023-12-28T02:22:32;22.80;;;12.23;;
64520;SDS011;50896;46.714;17.322;2023-12-28T02:25:13;25.30;;;12.15;;
64520;SDS011;50896;46.714;17.322;2023-12-28T02:27:41;20.20;;;12.45;;
64520;SDS011;50896;46.714;17.322;2023-12-28T02:30:10;22.80;;;11.38;;
64520;SDS011;50896;46.714;17.322;2023-12-28T02:35:32;25.27;;;12.68;;
64520;SDS011;50896;46.714;17.322;2023-12-28T02:38:08;23.48;;;12.73;;
64520;SDS011;50896;46.714;17.322;2023-12-28T02:40:37;24.55;;;13.30;;
64520;SDS011;50896;46.714;17.322;2023-12-28T02:43:08;23.33;;;12.80;;
64520;SDS011;50896;46.714;17.322;2023-12-28T02:45:36;19.45;;;11.60;;
64520;SDS011;50896;46.714;17.322;2023-12-28T02:48:04;20.92;;;12.07;;
64520;SDS011;50896;46.714;17.322;2023-12-28T02:50:32;24.92;;;13.02;;
64520;SDS011;50896;46.714;17.322;2023-12-28T02:53:00;22.25;;;12.13;;
64520;SDS011;50896;46.714;17.322;2023-12-28T02:55:27;25.42;;;12.65;;
64520;SDS011;50896;46.714;17.322;2023-12-28T02:57:55;19.60;;;11.73;;
64520;SDS011;50896;46.714;17.322;2023-12-28T03:00:27;19.70;;;13.07;;
64520;SDS011;50896;46.714;17.322;2023-12-28T03:02:54;22.70;;;12.57;;
64520;SDS011;50896;46.714;17.322;2023-12-28T03:05:21;22.40;;;11.93;;
64520;SDS011;50896;46.714;17.322;2023-12-28T03:07:48;21.67;;;12.60;;
64520;SDS011;50896;46.714;17.322;2023-12-28T03:10:17;23.55;;;12.90;;
64520;SDS011;50896;46.714;17.322;2023-12-28T03:12:44;26.20;;;13.88;;
64520;SDS011;50896;46.714;17.322;2023-12-28T03:15:12;24.58;;;12.73;;
64520;SDS011;50896;46.714;17.322;2023-12-28T03:17:39;19.88;;;12.10;;
64520;SDS011;50896;46.714;17.322;2023-12-28T03:20:07;20.65;;;12.65;;
64520;SDS011;50896;46.714;17.322;2023-12-28T03:22:36;18.40;;;11.82;;
64520;SDS011;50896;46.714;17.322;2023-12-28T03:25:03;21.63;;;12.25;;
64520;SDS011;50896;46.714;17.322;2023-12-28T03:27:30;22.60;;;12.20;;
64520;SDS011;50896;46.714;17.322;2023-12-28T03:29:57;22.67;;;12.20;;
64520;SDS011;50896;46.714;17.322;2023-12-28T03:32:24;21.38;;;12.65;;
64520;SDS011;50896;46.714;17.322;2023-12-28T03:34:51;22.05;;;12.05;;
64520;SDS011;50896;46.714;17.322;2023-12-28T03:37:18;18.95;;;12.43;;
64520;SDS011;50896;46.714;17.322;2023-12-28T03:39:45;19.17;;;11.35;;
64520;SDS011;50896;46.714;17.322;2023-12-28T03:42:12;18.63;;;11.68;;
64520;SDS011;50896;46.714;17.322;2023-12-28T03:44:40;20.23;;;11.77;;
64520;SDS011;50896;46.714;17.322;2023-12-28T03:47:07;21.42;;;11.48;;
64520;SDS011;50896;46.714;17.322;2023-12-28T03:49:34;21.35;;;11.70;;
64520;SDS011;50896;46.714;17.322;2023-12-28T03:52:01;22.60;;;12.20;;
64520;SDS011;50896;46.714;17.322;2023-12-28T03:54:28;21.95;;;12.23;;
64520;SDS011;50896;46.714;17.322;2023-12-28T03:56:55;24.48;;;11.40;;
64520;SDS011;50896;46.714;17.322;2023-12-28T03:59:22;17.77;;;11.57;;
64520;SDS011;50896;46.714;17.322;2023-12-28T04:01:49;21.05;;;11.55;;
64520;SDS011;50896;46.714;17.322;2023-12-28T04:04:16;19.38;;;11.25;;
64520;SDS011;50896;46.714;17.322;2023-12-28T04:06:43;14.63;;;10.07;;
64520;SDS011;50896;46.714;17.322;2023-12-28T04:09:13;17.70;;;10.52;;
64520;SDS011;50896;46.714;17.322;2023-12-28T04:14:08;19.48;;;10.82;;
64520;SDS011;50896;46.714;17.322;2023-12-28T04:16:36;16.45;;;9.80;;
64520;SDS011;50896;46.714;17.322;2023-12-28T04:19:02;18.58;;;11.15;;
64520;SDS011;50896;46.714;17.322;2023-12-28T04:21:29;16.50;;;9.45;;
64520;SDS011;50896;46.714;17.322;2023-12-28T04:23:56;17.65;;;9.23;;
64520;SDS011;50896;46.714;17.322;2023-12-28T04:26:25;16.65;;;10.43;;
64520;SDS011;50896;46.714;17.322;2023-12-28T04:28:52;25.30;;;10.50;;
64520;SDS011;50896;46.714;17.322;2023-12-28T04:31:19;19.08;;;10.13;;
64520;SDS011;50896;46.714;17.322;2023-12-28T04:33:46;16.40;;;9.95;;
64520;SDS011;50896;46.714;17.322;2023-12-28T04:36:13;15.23;;;9.32;;
64520;SDS011;50896;46.714;17.322;2023-12-28T04:38:40;16.40;;;9.68;;
64520;SDS011;50896;46.714;17.322;2023-12-28T04:41:06;18.70;;;9.57;;
64520;SDS011;50896;46.714;17.322;2023-12-28T04:43:35;16.47;;;9.70;;
64520;SDS011;50896;46.714;17.322;2023-12-28T04:46:03;17.75;;;9.43;;
64520;SDS011;50896;46.714;17.322;2023-12-28T04:48:31;16.65;;;9.88;;
64520;SDS011;50896;46.714;17.322;2023-12-28T04:51:01;16.05;;;9.23;;
64520;SDS011;50896;46.714;17.322;2023-12-28T04:53:29;17.15;;;10.05;;
64520;SDS011;50896;46.714;17.322;2023-12-28T04:55:56;16.65;;;9.43;;
64520;SDS011;50896;46.714;17.322;2023-12-28T04:58:23;20.45;;;9.23;;
64520;SDS011;50896;46.714;17.322;2023-12-28T05:00:50;17.20;;;8.88;;
64520;SDS011;50896;46.714;17.322;2023-12-28T05:03:18;15.35;;;9.38;;
64520;SDS011;50896;46.714;17.322;2023-12-28T05:05:45;15.93;;;9.07;;
64520;SDS011;50896;46.714;17.322;2023-12-28T05:08:15;15.50;;;9.45;;
64520;SDS011;50896;46.714;17.322;2023-12-28T05:10:42;15.88;;;8.65;;
64520;SDS011;50896;46.714;17.322;2023-12-28T05:13:09;18.48;;;10.13;;
64520;SDS011;50896;46.714;17.322;2023-12-28T05:15:36;19.35;;;10.88;;
64520;SDS011;50896;46.714;17.322;2023-12-28T05:18:03;20.02;;;9.93;;
64520;SDS011;50896;46.714;17.322;2023-12-28T05:20:31;14.52;;;9.20;;
64520;SDS011;50896;46.714;17.322;2023-12-28T05:22:58;15.70;;;8.70;;
64520;SDS011;50896;46.714;17.322;2023-12-28T05:25:25;15.02;;;8.85;;
64520;SDS011;50896;46.714;17.322;2023-12-28T05:27:51;17.55;;;9.70;;
64520;SDS011;50896;46.714;17.322;2023-12-28T05:30:19;14.10;;;8.32;;
64520;SDS011;50896;46.714;17.322;2023-12-28T05:32:46;15.27;;;8.43;;
64520;SDS011;50896;46.714;17.322;2023-12-28T05:35:13;16.67;;;8.63;;
64520;SDS011;50896;46.714;17.322;2023-12-28T05:37:40;15.32;;;9.20;;
64520;SDS011;50896;46.714;17.322;2023-12-28T05:40:07;16.92;;;8.48;;
64520;SDS011;50896;46.714;17.322;2023-12-28T05:42:36;16.23;;;8.95;;
64520;SDS011;50896;46.714;17.322;2023-12-28T05:45:04;16.08;;;8.40;;
64520;SDS011;50896;46.714;17.322;2023-12-28T05:47:31;14.02;;;8.35;;
64520;SDS011;50896;46.714;17.322;2023-12-28T05:50:00;13.05;;;8.02;;
64520;SDS011;50896;46.714;17.322;2023-12-28T05:52:29;14.95;;;7.80;;
64520;SDS011;50896;46.714;17.322;2023-12-28T05:54:56;15.27;;;8.80;;
64520;SDS011;50896;46.714;17.322;2023-12-28T05:57:23;14.65;;;7.88;;
64520;SDS011;50896;46.714;17.322;2023-12-28T05:59:51;14.52;;;8.18;;
64520;SDS011;50896;46.714;17.322;2023-12-28T06:02:18;15.18;;;8.35;;
64520;SDS011;50896;46.714;17.322;2023-12-28T06:04:45;12.50;;;7.93;;
64520;SDS011;50896;46.714;17.322;2023-12-28T06:07:12;13.27;;;7.95;;
64520;SDS011;50896;46.714;17.322;2023-12-28T06:09:39;12.90;;;8.30;;
64520;SDS011;50896;46.714;17.322;2023-12-28T06:12:06;12.50;;;8.05;;
64520;SDS011;50896;46.714;17.322;2023-12-28T06:14:33;13.23;;;8.10;;
64520;SDS011;50896;46.714;17.322;2023-12-28T06:17:00;13.48;;;8.27;;
64520;SDS011;50896;46.714;17.322;2023-12-28T06:19:27;11.80;;;7.88;;
64520;SDS011;50896;46.714;17.322;2023-12-28T06:21:54;15.35;;;8.35;;
64520;SDS011;50896;46.714;17.322;2023-12-28T06:24:21;14.98;;;7.22;;
64520;SDS011;50896;46.714;17.322;2023-12-28T06:26:48;12.05;;;7.30;;
64520;SDS011;50896;46.714;17.322;2023-12-28T06:29:15;14.80;;;8.07;;
64520;SDS011;50896;46.714;17.322;2023-12-28T06:31:42;16.45;;;8.00;;
64520;SDS011;50896;46.714;17.322;2023-12-28T06:34:09;12.77;;;7.63;;
64520;SDS011;50896;46.714;17.322;2023-12-28T06:36:36;14.35;;;8.00;;
64520;SDS011;50896;46.714;17.322;2023-12-28T06:39:03;11.00;;;7.40;;
64520;SDS011;50896;46.714;17.322;2023-12-28T06:41:30;11.68;;;7.60;;
64520;SDS011;50896;46.714;17.322;2023-12-28T06:43:57;13.85;;;7.90;;
64520;SDS011;50896;46.714;17.322;2023-12-28T06:46:24;14.40;;;7.85;;
64520;SDS011;50896;46.714;17.322;2023-12-28T06:48:51;14.20;;;7.75;;
64520;SDS011;50896;46.714;17.322;2023-12-28T06:51:20;12.98;;;7.82;;
64520;SDS011;50896;46.714;17.322;2023-12-28T06:53:51;11.55;;;6.90;;
64520;SDS011;50896;46.714;17.322;2023-12-28T06:56:17;12.90;;;7.20;;
64520;SDS011;50896;46.714;17.322;2023-12-28T06:58:45;13.80;;;8.13;;
64520;SDS011;50896;46.714;17.322;2023-12-28T07:01:11;13.60;;;8.05;;
64520;SDS011;50896;46.714;17.322;2023-12-28T07:03:39;15.52;;;8.20;;
64520;SDS011;50896;46.714;17.322;2023-12-28T07:06:07;11.45;;;7.57;;
64520;SDS011;50896;46.714;17.322;2023-12-28T07:08:34;16.55;;;7.88;;
64520;SDS011;50896;46.714;17.322;2023-12-28T07:11:03;12.07;;;7.32;;
64520;SDS011;50896;46.714;17.322;2023-12-28T07:13:31;13.95;;;8.35;;
64520;SDS011;50896;46.714;17.322;2023-12-28T07:15:58;17.25;;;8.75;;
64520;SDS011;50896;46.714;17.322;2023-12-28T07:18:27;13.82;;;7.80;;
64520;SDS011;50896;46.714;17.322;2023-12-28T07:20:55;12.75;;;7.47;;
64520;SDS011;50896;46.714;17.322;2023-12-28T07:23:23;10.20;;;6.82;;
64520;SDS011;50896;46.714;17.322;2023-12-28T07:25:50;12.15;;;7.40;;
64520;SDS011;50896;46.714;17.322;2023-12-28T07:28:17;12.52;;;7.07;;
64520;SDS011;50896;46.714;17.322;2023-12-28T07:30:50;17.85;;;8.13;;
64520;SDS011;50896;46.714;17.322;2023-12-28T07:33:17;12.95;;;7.18;;
64520;SDS011;50896;46.714;17.322;2023-12-28T07:35:44;13.75;;;7.32;;
64520;SDS011;50896;46.714;17.322;2023-12-28T07:38:12;10.73;;;6.20;;
64520;SDS011;50896;46.714;17.322;2023-12-28T07:40:39;15.45;;;7.18;;
64520;SDS011;50896;46.714;17.322;2023-12-28T07:43:06;14.45;;;7.07;;
64520;SDS011;50896;46.714;17.322;2023-12-28T07:45:33;16.27;;;7.07;;
64520;SDS011;50896;46.714;17.322;2023-12-28T07:47:59;13.15;;;6.88;;
64520;SDS011;50896;46.714;17.322;2023-12-28T07:50:26;12.50;;;7.10;;
64520;SDS011;50896;46.714;17.322;2023-12-28T07:52:53;13.00;;;7.32;;
64520;SDS011;50896;46.714;17.322;2023-12-28T07:55:20;13.07;;;7.47;;
64520;SDS011;50896;46.714;17.322;2023-12-28T07:57:47;13.95;;;6.97;;
64520;SDS011;50896;46.714;17.322;2023-12-28T08:00:14;12.75;;;7.70;;
64520;SDS011;50896;46.714;17.322;2023-12-28T08:02:43;10.63;;;6.85;;
64520;SDS011;50896;46.714;17.322;2023-12-28T08:05:16;11.98;;;6.25;;
64520;SDS011;50896;46.714;17.322;2023-12-28T08:07:43;10.77;;;6.80;;
64520;SDS011;50896;46.714;17.322;2023-12-28T08:10:10;9.43;;;6.85;;
64520;SDS011;50896;46.714;17.322;2023-12-28T08:12:37;12.68;;;7.80;;
64520;SDS011;50896;46.714;17.322;2023-12-28T08:15:04;12.90;;;7.93;;
64520;SDS011;50896;46.714;17.322;2023-12-28T08:17:32;15.45;;;9.13;;
64520;SDS011;50896;46.714;17.322;2023-12-28T08:19:59;13.02;;;8.27;;
64520;SDS011;50896;46.714;17.322;2023-12-28T08:22:26;16.80;;;8.43;;
64520;SDS011;50896;46.714;17.322;2023-12-28T08:24:54;14.27;;;8.45;;
64520;SDS011;50896;46.714;17.322;2023-12-28T08:27:21;12.80;;;8.05;;
64520;SDS011;50896;46.714;17.322;2023-12-28T08:29:48;16.88;;;8.20;;
64520;SDS011;50896;46.714;17.322;2023-12-28T08:32:15;12.27;;;7.90;;
64520;SDS011;50896;46.714;17.322;2023-12-28T08:34:43;15.63;;;7.97;;
64520;SDS011;50896;46.714;17.322;2023-12-28T08:37:11;12.93;;;8.30;;
64520;SDS011;50896;46.714;17.322;2023-12-28T08:39:39;13.52;;;8.85;;
64520;SDS011;50896;46.714;17.322;2023-12-28T08:42:06;11.35;;;7.57;;
64520;SDS011;50896;46.714;17.322;2023-12-28T08:44:33;15.52;;;9.35;;
64520;SDS011;50896;46.714;17.322;2023-12-28T08:47:01;13.48;;;8.63;;
64520;SDS011;50896;46.714;17.322;2023-12-28T08:49:28;15.90;;;8.88;;
64520;SDS011;50896;46.714;17.322;2023-12-28T08:51:56;15.80;;;8.35;;
64520;SDS011;50896;46.714;17.322;2023-12-28T08:54:22;11.98;;;7.60;;
64520;SDS011;50896;46.714;17.322;2023-12-28T08:56:49;15.23;;;8.48;;
64520;SDS011;50896;46.714;17.322;2023-12-28T08:59:19;15.07;;;8.77;;
64520;SDS011;50896;46.714;17.322;2023-12-28T09:01:46;15.27;;;8.45;;
64520;SDS011;50896;46.714;17.322;2023-12-28T09:04:13;13.10;;;8.20;;
64520;SDS011;50896;46.714;17.322;2023-12-28T09:06:40;16.55;;;8.70;;
64520;SDS011;50896;46.714;17.322;2023-12-28T09:09:07;16.55;;;8.25;;
64520;SDS011;50896;46.714;17.322;2023-12-28T09:11:34;18.95;;;9.00;;
64520;SDS011;50896;46.714;17.322;2023-12-28T09:14:03;13.60;;;8.02;;
64520;SDS011;50896;46.714;17.322;2023-12-28T09:16:30;16.25;;;8.60;;
64520;SDS011;50896;46.714;17.322;2023-12-28T09:18:57;15.50;;;8.90;;
64520;SDS011;50896;46.714;17.322;2023-12-28T09:21:24;20.42;;;13.05;;
64520;SDS011;50896;46.714;17.322;2023-12-28T09:23:53;19.75;;;13.48;;
64520;SDS011;50896;46.714;17.322;2023-12-28T09:26:19;13.27;;;8.50;;
64520;SDS011;50896;46.714;17.322;2023-12-28T09:28:46;14.48;;;7.78;;
64520;SDS011;50896;46.714;17.322;2023-12-28T09:31:13;13.68;;;7.65;;
64520;SDS011;50896;46.714;17.322;2023-12-28T09:33:40;11.27;;;7.30;;
64520;SDS011;50896;46.714;17.322;2023-12-28T09:36:10;13.25;;;7.60;;
64520;SDS011;50896;46.714;17.322;2023-12-28T09:38:39;15.27;;;7.57;;
64520;SDS011;50896;46.714;17.322;2023-12-28T09:41:13;15.48;;;7.68;;
64520;SDS011;50896;46.714;17.322;2023-12-28T09:46:37;14.77;;;7.63;;
64520;SDS011;50896;46.714;17.322;2023-12-28T09:49:08;12.40;;;7.38;;
64520;SDS011;50896;46.714;17.322;2023-12-28T09:51:35;10.25;;;7.38;;
64520;SDS011;50896;46.714;17.322;2023-12-28T09:54:05;10.30;;;7.30;;
64520;SDS011;50896;46.714;17.322;2023-12-28T09:56:34;12.48;;;7.13;;
64520;SDS011;50896;46.714;17.322;2023-12-28T09:59:02;11.50;;;7.10;;
64520;SDS011;50896;46.714;17.322;2023-12-28T10:01:30;10.90;;;7.40;;
64520;SDS011;50896;46.714;17.322;2023-12-28T10:03:58;13.00;;;7.40;;
64520;SDS011;50896;46.714;17.322;2023-12-28T10:06:25;11.65;;;6.25;;
64520;SDS011;50896;46.714;17.322;2023-12-28T10:08:52;10.63;;;6.80;;
64520;SDS011;50896;46.714;17.322;2023-12-28T10:11:19;11.38;;;6.80;;
64520;SDS011;50896;46.714;17.322;2023-12-28T10:13:48;14.10;;;6.72;;
64520;SDS011;50896;46.714;17.322;2023-12-28T10:16:15;10.00;;;6.55;;
64520;SDS011;50896;46.714;17.322;2023-12-28T10:18:43;9.75;;;6.82;;
64520;SDS011;50896;46.714;17.322;2023-12-28T10:21:11;12.02;;;6.65;;
64520;SDS011;50896;46.714;17.322;2023-12-28T10:23:38;11.48;;;6.93;;
64520;SDS011;50896;46.714;17.322;2023-12-28T10:26:05;14.18;;;7.18;;
64520;SDS011;50896;46.714;17.322;2023-12-28T10:28:32;14.75;;;8.13;;
64520;SDS011;50896;46.714;17.322;2023-12-28T10:31:01;11.38;;;7.20;;
64520;SDS011;50896;46.714;17.322;2023-12-28T10:33:33;13.23;;;7.65;;
64520;SDS011;50896;46.714;17.322;2023-12-28T10:36:03;10.98;;;8.10;;
64520;SDS011;50896;46.714;17.322;2023-12-28T10:38:36;16.20;;;8.52;;
64520;SDS011;50896;46.714;17.322;2023-12-28T10:41:06;14.23;;;8.10;;
64520;SDS011;50896;46.714;17.322;2023-12-28T10:43:46;15.88;;;8.00;;
64520;SDS011;50896;46.714;17.322;2023-12-28T10:46:30;18.55;;;9.48;;
64520;SDS011;50896;46.714;17.322;2023-12-28T10:49:11;18.25;;;9.68;;
64520;SDS011;50896;46.714;17.322;2023-12-28T10:51:40;12.77;;;8.32;;
64520;SDS011;50896;46.714;17.322;2023-12-28T11:02:28;11.40;;;7.68;;
64520;SDS011;50896;46.714;17.322;2023-12-28T11:04:59;11.75;;;7.53;;
64520;SDS011;50896;46.714;17.322;2023-12-28T11:07:28;11.60;;;7.88;;
64520;SDS011;50896;46.714;17.322;2023-12-28T11:10:02;12.60;;;7.45;;
64520;SDS011;50896;46.714;17.322;2023-12-28T11:12:31;15.20;;;8.32;;
64520;SDS011;50896;46.714;17.322;2023-12-28T11:14:59;11.50;;;7.05;;
64520;SDS011;50896;46.714;17.322;2023-12-28T11:17:26;12.10;;;7.15;;
64520;SDS011;50896;46.714;17.322;2023-12-28T11:19:54;11.48;;;7.05;;
64520;SDS011;50896;46.714;17.322;2023-12-28T11:22:22;13.43;;;7.82;;
64520;SDS011;50896;46.714;17.322;2023-12-28T11:24:54;14.15;;;7.45;;
64520;SDS011;50896;46.714;17.322;2023-12-28T11:27:22;10.10;;;6.80;;
64520;SDS011;50896;46.714;17.322;2023-12-28T11:29:52;11.20;;;7.38;;
64520;SDS011;50896;46.714;17.322;2023-12-28T11:32:19;11.60;;;6.90;;
64520;SDS011;50896;46.714;17.322;2023-12-28T11:34:56;10.20;;;6.95;;
64520;SDS011;50896;46.714;17.322;2023-12-28T11:37:23;8.75;;;6.10;;
64520;SDS011;50896;46.714;17.322;2023-12-28T11:39:52;10.45;;;7.28;;
64520;SDS011;50896;46.714;17.322;2023-12-28T11:42:21;13.98;;;7.90;;
64520;SDS011;50896;46.714;17.322;2023-12-28T11:44:53;13.93;;;8.93;;
64520;SDS011;50896;46.714;17.322;2023-12-28T11:47:22;16.30;;;9.93;;
64520;SDS011;50896;46.714;17.322;2023-12-28T11:49:51;16.05;;;9.45;;
64520;SDS011;50896;46.714;17.322;2023-12-28T11:52:30;12.93;;;8.23;;
64520;SDS011;50896;46.714;17.322;2023-12-28T11:54:58;11.63;;;7.37;;
64520;SDS011;50896;46.714;17.322;2023-12-28T11:57:26;10.70;;;7.43;;
64520;SDS011;50896;46.714;17.322;2023-12-28T11:59:55;12.82;;;7.28;;
64520;SDS011;50896;46.714;17.322;2023-12-28T12:04:51;11.75;;;8.20;;
64520;SDS011;50896;46.714;17.322;2023-12-28T12:07:21;13.40;;;8.82;;
64520;SDS011;50896;46.714;17.322;2023-12-28T12:09:48;15.02;;;9.75;;
64520;SDS011;50896;46.714;17.322;2023-12-28T12:12:15;14.70;;;9.75;;
64520;SDS011;50896;46.714;17.322;2023-12-28T12:14:42;12.90;;;8.93;;
64520;SDS011;50896;46.714;17.322;2023-12-28T12:17:09;15.50;;;10.35;;
64520;SDS011;50896;46.714;17.322;2023-12-28T12:19:36;14.10;;;9.48;;
64520;SDS011;50896;46.714;17.322;2023-12-28T12:22:04;13.57;;;8.73;;
64520;SDS011;50896;46.714;17.322;2023-12-28T12:24:31;13.15;;;8.30;;
64520;SDS011;50896;46.714;17.322;2023-12-28T12:27:00;12.43;;;7.40;;
64520;SDS011;50896;46.714;17.322;2023-12-28T12:29:31;12.63;;;7.50;;
64520;SDS011;50896;46.714;17.322;2023-12-28T12:31:58;14.02;;;7.38;;
64520;SDS011;50896;46.714;17.322;2023-12-28T12:34:25;10.10;;;7.00;;
64520;SDS011;50896;46.714;17.322;2023-12-28T12:36:52;13.68;;;7.70;;
64520;SDS011;50896;46.714;17.322;2023-12-28T12:39:24;12.73;;;7.47;;
64520;SDS011;50896;46.714;17.322;2023-12-28T12:41:51;13.35;;;7.93;;
64520;SDS011;50896;46.714;17.322;2023-12-28T12:44:19;12.48;;;7.55;;
64520;SDS011;50896;46.714;17.322;2023-12-28T12:46:47;12.05;;;8.05;;
64520;SDS011;50896;46.714;17.322;2023-12-28T12:49:15;13.48;;;7.80;;
64520;SDS011;50896;46.714;17.322;2023-12-28T12:51:44;12.50;;;7.90;;
64520;SDS011;50896;46.714;17.322;2023-12-28T12:54:12;11.35;;;6.88;;
64520;SDS011;50896;46.714;17.322;2023-12-28T12:56:38;9.73;;;6.30;;
64520;SDS011;50896;46.714;17.322;2023-12-28T12:59:12;12.80;;;7.15;;
64520;SDS011;50896;46.714;17.322;2023-12-28T13:01:45;8.60;;;5.95;;
64520;SDS011;50896;46.714;17.322;2023-12-28T13:04:18;10.70;;;6.55;;
64520;SDS011;50896;46.714;17.322;2023-12-28T13:06:45;11.68;;;5.95;;
64520;SDS011;50896;46.714;17.322;2023-12-28T13:09:12;12.85;;;6.70;;
64520;SDS011;50896;46.714;17.322;2023-12-28T13:11:39;17.35;;;6.60;;
64520;SDS011;50896;46.714;17.322;2023-12-28T13:14:06;10.07;;;6.43;;
64520;SDS011;50896;46.714;17.322;2023-12-28T13:16:33;10.05;;;6.10;;
64520;SDS011;50896;46.714;17.322;2023-12-28T13:19:00;10.75;;;6.15;;
64520;SDS011;50896;46.714;17.322;2023-12-28T13:21:27;13.23;;;6.00;;
64520;SDS011;50896;46.714;17.322;2023-12-28T13:23:54;12.38;;;5.82;;
64520;SDS011;50896;46.714;17.322;2023-12-28T13:26:21;9.65;;;5.60;;
64520;SDS011;50896;46.714;17.322;2023-12-28T13:28:48;11.40;;;5.80;;
64520;SDS011;50896;46.714;17.322;2023-12-28T13:31:15;9.60;;;6.00;;
64520;SDS011;50896;46.714;17.322;2023-12-28T13:33:42;9.85;;;5.65;;
64520;SDS011;50896;46.714;17.322;2023-12-28T13:36:09;10.48;;;6.50;;
64520;SDS011;50896;46.714;17.322;2023-12-28T13:38:35;8.82;;;5.55;;
64520;SDS011;50896;46.714;17.322;2023-12-28T13:41:02;8.73;;;5.57;;
64520;SDS011;50896;46.714;17.322;2023-12-28T13:43:29;9.27;;;5.07;;
64520;SDS011;50896;46.714;17.322;2023-12-28T13:45:56;6.75;;;5.20;;
64520;SDS011;50896;46.714;17.322;2023-12-28T13:48:23;10.32;;;5.70;;
64520;SDS011;50896;46.714;17.322;2023-12-28T13:50:50;10.15;;;6.03;;
64520;SDS011;50896;46.714;17.322;2023-12-28T13:53:17;9.80;;;5.90;;
64520;SDS011;50896;46.714;17.322;2023-12-28T13:55:44;11.98;;;6.32;;
64520;SDS011;50896;46.714;17.322;2023-12-28T13:58:12;10.45;;;6.32;;
64520;SDS011;50896;46.714;17.322;2023-12-28T14:00:39;9.55;;;6.30;;
64520;SDS011;50896;46.714;17.322;2023-12-28T14:03:07;12.02;;;5.90;;
64520;SDS011;50896;46.714;17.322;2023-12-28T14:05:34;8.85;;;5.72;;
64520;SDS011;50896;46.714;17.322;2023-12-28T14:08:02;11.60;;;6.40;;
64520;SDS011;50896;46.714;17.322;2023-12-28T14:10:30;11.13;;;5.80;;
64520;SDS011;50896;46.714;17.322;2023-12-28T14:12:57;11.40;;;6.50;;
64520;SDS011;50896;46.714;17.322;2023-12-28T14:15:24;11.57;;;6.20;;
64520;SDS011;50896;46.714;17.322;2023-12-28T14:17:51;8.88;;;5.45;;
64520;SDS011;50896;46.714;17.322;2023-12-28T14:20:18;8.90;;;5.25;;
64520;SDS011;50896;46.714;17.322;2023-12-28T14:22:45;9.75;;;6.22;;
64520;SDS011;50896;46.714;17.322;2023-12-28T14:25:13;11.65;;;6.63;;
64520;SDS011;50896;46.714;17.322;2023-12-28T14:27:40;10.05;;;5.90;;
64520;SDS011;50896;46.714;17.322;2023-12-28T14:30:07;11.02;;;6.15;;
64520;SDS011;50896;46.714;17.322;2023-12-28T14:32:37;11.77;;;6.68;;
64520;SDS011;50896;46.714;17.322;2023-12-28T14:35:04;10.75;;;6.25;;
64520;SDS011;50896;46.714;17.322;2023-12-28T14:37:31;10.40;;;6.35;;
64520;SDS011;50896;46.714;17.322;2023-12-28T14:39:58;14.38;;;6.43;;
64520;SDS011;50896;46.714;17.322;2023-12-28T14:42:25;14.20;;;5.88;;